Time;durP1;ratioP1;P1;durP2;ratioP2;P2;SDS_P1;SDS_P2;PMS_P1;PMS_P2;Temp;Humidity;BMP_temperature;BMP_pressure;BME280_temperature;BME280_humidity;BME280_pressure;Samples;Min_cycle;Max_cycle;Signal;HPM_P1;HPM_P2
2024/03/27 00:02:20;;;;;;;0.20;0.20;;;;;;;10.04;77.88;100613.47;4951315;28;20118;-86
2024/03/27 00:04:46;;;;;;;0.20;0.20;;;;;;;10.00;78.25;100608.50;4967486;28;20072;-86
2024/03/27 00:07:11;;;;;;;0.20;0.20;;;;;;;9.95;77.39;100606.16;4951414;29;20019;-86
2024/03/27 00:09:37;;;;;;;0.15;0.15;;;;;;;9.85;76.61;100593.72;4951103;29;20036;-86
2024/03/27 00:12:03;;;;;;;0.20;0.20;;;;;;;9.96;77.38;100586.31;4951256;28;20035;-85
2024/03/27 00:14:28;;;;;;;0.20;0.20;;;;;;;10.10;76.82;100614.91;4967485;28;20441;-87
2024/03/27 00:16:54;;;;;;;0.20;0.20;;;;;;;10.01;76.89;100616.19;4951120;29;20524;-86
2024/03/27 00:19:20;;;;;;;0.20;0.20;;;;;;;9.95;76.97;100589.81;4952386;28;20054;-86
2024/03/27 00:21:46;;;;;;;0.20;0.20;;;;;;;10.04;74.99;100608.31;4950909;29;20110;-86
2024/03/27 00:24:11;;;;;;;0.20;0.20;;;;;;;9.96;74.61;100605.22;4951022;29;20110;-86
2024/03/27 00:26:37;;;;;;;0.20;0.20;;;;;;;10.05;75.42;100616.91;4967061;28;20031;-86
2024/03/27 00:29:03;;;;;;;0.20;0.20;;;;;;;10.02;75.07;100611.84;4969206;28;20497;-85
2024/03/27 00:31:29;;;;;;;0.10;0.10;;;;;;;10.03;75.01;100605.78;4955026;28;20035;-86
2024/03/27 00:33:54;;;;;;;0.20;0.20;;;;;;;10.02;75.68;100593.75;4956340;28;20114;-86
2024/03/27 00:36:20;;;;;;;0.20;0.20;;;;;;;10.11;74.75;100597.66;4970828;28;20032;-86
2024/03/27 00:38:45;;;;;;;0.20;0.20;;;;;;;10.12;74.52;100589.00;4954493;29;20082;-86
2024/03/27 00:41:11;;;;;;;0.20;0.20;;;;;;;9.88;75.22;100558.22;4954475;29;20548;-85
2024/03/27 00:43:36;;;;;;;0.20;0.20;;;;;;;10.04;75.87;100599.72;4954780;28;20453;-86
2024/03/27 00:46:03;;;;;;;0.20;0.20;;;;;;;10.05;74.77;100602.22;4938878;29;20031;-85
2024/03/27 00:48:29;;;;;;;0.10;0.10;;;;;;;10.06;75.37;100588.38;4971086;28;20505;-86
2024/03/27 00:50:54;;;;;;;0.20;0.20;;;;;;;9.99;75.67;100566.31;4970720;28;20031;-86
2024/03/27 00:53:20;;;;;;;0.20;0.20;;;;;;;10.05;75.73;100578.97;4954630;29;20042;-86
2024/03/27 00:55:56;;;;;;;0.20;0.20;;;;;;;10.09;74.44;100582.22;4938328;29;20035;-86
2024/03/27 00:58:21;;;;;;;0.20;0.20;;;;;;;10.10;75.35;100583.06;4954503;28;20417;-87
2024/03/27 01:00:47;;;;;;;0.20;0.20;;;;;;;10.05;75.39;100566.03;4954742;29;20051;-86
2024/03/27 01:03:13;;;;;;;0.20;0.20;;;;;;;10.17;75.42;100589.63;4938533;29;20478;-86
2024/03/27 01:05:42;;;;;;;0.20;0.20;;;;;;;10.18;74.81;100580.94;4970650;28;20834;-87
2024/03/27 01:08:08;;;;;;;0.20;0.20;;;;;;;10.15;74.66;100583.69;4953875;29;20194;-86
2024/03/27 01:10:34;;;;;;;0.20;0.20;;;;;;;10.21;74.81;100585.97;4938468;29;20545;-89
2024/03/27 01:13:00;;;;;;;0.20;0.20;;;;;;;10.13;75.68;100568.25;4970332;28;20043;-86
2024/03/27 01:15:25;;;;;;;0.20;0.20;;;;;;;10.18;76.91;100576.63;4970342;28;20062;-86
2024/03/27 01:17:51;;;;;;;0.20;0.20;;;;;;;10.17;76.68;100566.34;4954329;29;20087;-86
2024/03/27 01:20:17;;;;;;;0.20;0.20;;;;;;;10.18;77.00;100560.28;4970369;28;20398;-86
2024/03/27 01:22:43;;;;;;;0.20;0.20;;;;;;;10.16;77.51;100567.28;4953689;29;20486;-86
2024/03/27 01:25:08;;;;;;;0.20;0.20;;;;;;;10.04;78.60;100554.03;4970107;28;20035;-86
2024/03/27 01:27:34;;;;;;;0.20;0.20;;;;;;;10.09;78.56;100568.47;4970219;28;20031;-86
2024/03/27 01:30:00;;;;;;;0.20;0.20;;;;;;;10.11;79.36;100569.22;4970125;28;20114;-85
2024/03/27 01:32:26;;;;;;;0.20;0.20;;;;;;;9.98;79.36;100574.16;4954161;29;20118;-86
2024/03/27 01:34:51;;;;;;;0.20;0.20;;;;;;;9.90;79.87;100556.41;4970208;28;20631;-87
2024/03/27 01:37:18;;;;;;;0.20;0.20;;;;;;;9.97;79.38;100557.81;4969706;28;20027;-86
2024/03/27 01:39:44;;;;;;;0.20;0.20;;;;;;;9.94;78.26;100550.19;4953530;28;20062;-85
2024/03/27 01:42:09;;;;;;;0.20;0.20;;;;;;;9.97;78.92;100547.47;4937647;29;20352;-86
2024/03/27 01:44:35;;;;;;;0.10;0.10;;;;;;;9.94;79.51;100539.88;4953858;29;20098;-86
2024/03/27 01:47:01;;;;;;;0.20;0.20;;;;;;;9.92;80.10;100536.50;4953760;29;20035;-86
2024/03/27 01:49:26;;;;;;;0.20;0.20;;;;;;;9.88;80.63;100532.41;4953714;29;20155;-86
2024/03/27 01:51:52;;;;;;;0.20;0.20;;;;;;;9.91;80.81;100532.25;4953631;29;20409;-86
2024/03/27 01:54:17;;;;;;;0.20;0.20;;;;;;;9.81;80.02;100523.25;4969669;28;20050;-86
2024/03/27 01:56:43;;;;;;;0.20;0.20;;;;;;;9.81;79.86;100536.16;4953955;29;20039;-85
2024/03/27 01:59:09;;;;;;;0.20;0.20;;;;;;;9.80;80.76;100539.66;4953492;28;20035;-86
2024/03/27 02:01:35;;;;;;;0.20;0.20;;;;;;;9.79;81.08;100543.16;4937423;29;20449;-86
2024/03/27 02:04:01;;;;;;;0.20;0.20;;;;;;;9.78;80.40;100550.06;4953349;28;20035;-86
2024/03/27 02:06:26;;;;;;;0.20;0.20;;;;;;;9.77;79.89;100545.00;4952854;29;20532;-86
2024/03/27 02:08:52;;;;;;;0.20;0.20;;;;;;;9.79;80.19;100550.91;4953277;28;20067;-86
2024/03/27 02:11:18;;;;;;;0.20;0.20;;;;;;;9.76;80.51;100543.31;4953217;29;20516;-86
2024/03/27 02:13:47;;;;;;;0.20;0.20;;;;;;;9.77;80.34;100542.41;4969163;28;20537;-85
2024/03/27 02:16:12;;;;;;;0.20;0.20;;;;;;;9.76;80.43;100549.31;4937223;28;20501;-86
2024/03/27 02:18:38;;;;;;;0.10;0.10;;;;;;;9.84;80.13;100542.97;4969296;28;20118;-86
2024/03/27 02:21:04;;;;;;;0.20;0.20;;;;;;;9.70;80.36;100515.19;4952875;29;20027;-85
2024/03/27 02:23:56;;;;;;;0.20;0.20;;;;;;;9.73;80.14;100517.59;4969243;28;20023;-85
2024/03/27 02:26:32;;;;;;;0.20;0.20;;;;;;;9.70;79.61;100528.09;4934628;29;20082;-86
2024/03/27 02:28:58;;;;;;;0.20;0.20;;;;;;;9.73;80.41;100522.78;4936976;29;20520;-85
2024/03/27 02:31:23;;;;;;;0.10;0.10;;;;;;;9.67;81.25;100526.50;4968981;28;20035;-86
2024/03/27 02:33:49;;;;;;;0.20;0.20;;;;;;;9.62;80.64;100532.78;4952797;28;20032;-85
2024/03/27 02:36:14;;;;;;;0.20;0.20;;;;;;;9.64;80.54;100533.56;4936465;29;20070;-85
2024/03/27 02:38:40;;;;;;;0.20;0.20;;;;;;;9.67;81.34;100538.56;4968652;28;20055;-86
2024/03/27 02:41:05;;;;;;;0.20;0.20;;;;;;;9.70;81.83;100528.09;4968697;28;20078;-86
2024/03/27 02:43:31;;;;;;;0.20;0.20;;;;;;;9.54;81.94;100516.78;4953964;28;20086;-86
2024/03/27 02:45:56;;;;;;;0.20;0.20;;;;;;;9.54;82.02;100514.19;4968809;28;20074;-86
2024/03/27 02:48:22;;;;;;;0.20;0.20;;;;;;;9.68;81.61;100545.41;4952653;29;20039;-86
2024/03/27 02:50:47;;;;;;;0.20;0.20;;;;;;;9.46;81.44;100510.25;4951436;28;20027;-85
2024/03/27 02:53:13;;;;;;;0.15;0.15;;;;;;;9.63;81.79;100542.19;4952213;29;20031;-87
2024/03/27 02:55:38;;;;;;;0.20;0.20;;;;;;;9.65;81.72;100545.56;4968536;28;20035;-86
2024/03/27 02:58:04;;;;;;;0.20;0.20;;;;;;;9.64;81.32;100549.06;4953711;28;20039;-86
2024/03/27 03:00:29;;;;;;;0.20;0.20;;;;;;;9.64;80.46;100543.88;4968630;28;20032;-87
2024/03/27 03:02:55;;;;;;;0.20;0.20;;;;;;;9.62;81.58;100540.50;4952289;29;20027;-86
2024/03/27 03:05:20;;;;;;;0.20;0.20;;;;;;;9.67;81.84;100543.75;4951925;29;20062;-84
2024/03/27 03:07:46;;;;;;;0.20;0.20;;;;;;;9.72;81.75;100547.75;4953535;28;20070;-86
2024/03/27 03:10:12;;;;;;;0.20;0.20;;;;;;;9.72;81.94;100544.34;4952322;29;20477;-86
2024/03/27 03:12:38;;;;;;;0.20;0.20;;;;;;;9.58;81.22;100515.75;4967976;28;20023;-86
2024/03/27 03:15:04;;;;;;;0.20;0.20;;;;;;;9.77;80.99;100538.06;4952033;29;20059;-87
2024/03/27 03:17:30;;;;;;;0.20;0.20;;;;;;;9.70;82.15;100541.00;4952231;29;20058;-87
2024/03/27 03:19:55;;;;;;;0.20;0.20;;;;;;;9.63;81.39;100518.94;4935819;29;20905;-86
2024/03/27 03:22:21;;;;;;;0.20;0.20;;;;;;;9.68;81.00;100540.25;4935932;29;20046;-86
2024/03/27 03:24:46;;;;;;;0.10;0.10;;;;;;;9.58;81.71;100539.84;4952050;29;20470;-86
2024/03/27 03:27:12;;;;;;;0.20;0.20;;;;;;;9.59;81.33;100541.50;4951778;28;20569;-85
2024/03/27 03:29:37;;;;;;;0.20;0.20;;;;;;;9.56;82.38;100538.25;4968095;28;20023;-86
2024/03/27 03:32:03;;;;;;;0.20;0.20;;;;;;;9.53;82.52;100536.59;4951880;29;20082;-86
2024/03/27 03:34:29;;;;;;;0.20;0.20;;;;;;;9.62;81.71;100537.94;4935782;29;20077;-86
2024/03/27 03:36:55;;;;;;;0.20;0.20;;;;;;;9.57;82.56;100552.81;4951916;29;20029;-86
2024/03/27 03:39:20;;;;;;;0.20;0.20;;;;;;;9.40;83.11;100533.75;4935394;29;20065;-86
2024/03/27 03:41:46;;;;;;;0.20;0.20;;;;;;;9.58;82.92;100555.31;4951418;29;20220;-85
2024/03/27 03:44:11;;;;;;;0.20;0.20;;;;;;;9.54;82.94;100555.53;4967824;28;20031;-86
2024/03/27 03:46:37;;;;;;;0.20;0.20;;;;;;;9.47;83.53;100548.06;4952559;28;20035;-86
2024/03/27 03:49:02;;;;;;;0.20;0.20;;;;;;;9.54;83.08;100532.28;4967824;28;20035;-86
2024/03/27 03:51:28;;;;;;;0.20;0.20;;;;;;;9.63;83.20;100542.19;4967678;28;20027;-86
2024/03/27 03:53:53;;;;;;;0.20;0.20;;;;;;;9.47;82.77;100530.00;4967721;28;20035;-86
2024/03/27 03:56:19;;;;;;;0.20;0.20;;;;;;;9.42;82.50;100521.59;4951535;29;20031;-86
2024/03/27 03:58:44;;;;;;;0.20;0.20;;;;;;;9.39;82.58;100508.00;4967539;28;20098;-84
2024/03/27 04:01:10;;;;;;;0.20;0.20;;;;;;;9.39;82.73;100498.53;4951072;29;20031;-86
2024/03/27 04:03:36;;;;;;;0.20;0.20;;;;;;;9.59;82.67;100526.00;4951077;28;20035;-86
2024/03/27 04:06:02;;;;;;;0.20;0.20;;;;;;;9.68;82.16;100537.66;4967518;28;20023;-83
2024/03/27 04:08:27;;;;;;;0.20;0.20;;;;;;;9.70;82.45;100526.34;4951257;29;20024;-83
2024/03/27 04:10:53;;;;;;;0.20;0.20;;;;;;;9.86;81.58;100531.63;4951359;29;20031;-82
2024/03/27 04:13:18;;;;;;;0.20;0.20;;;;;;;9.72;81.72;100510.75;4935219;29;20042;-82
2024/03/27 04:15:44;;;;;;;0.20;0.20;;;;;;;9.89;81.27;100521.16;4934877;29;20035;-80
2024/03/27 04:18:10;;;;;;;0.20;0.20;;;;;;;9.85;81.33;100527.38;4935387;28;20031;-82
2024/03/27 04:20:42;;;;;;;0.20;0.20;;;;;;;9.83;81.08;100503.34;4951223;28;20417;-82
2024/03/27 04:23:07;;;;;;;0.20;0.20;;;;;;;9.86;81.57;100518.72;4966456;28;20031;-82
2024/03/27 04:25:33;;;;;;;0.20;0.20;;;;;;;9.85;81.45;100501.53;4951334;29;20509;-82
2024/03/27 04:27:59;;;;;;;0.20;0.20;;;;;;;9.77;81.39;100501.91;4951248;29;20051;-82
2024/03/27 04:30:24;;;;;;;0.20;0.20;;;;;;;9.79;80.71;100496.66;4949599;29;20035;-83
2024/03/27 04:32:50;;;;;;;0.20;0.20;;;;;;;9.75;81.30;100505.47;4950415;28;20118;-86
2024/03/27 04:35:16;;;;;;;0.20;0.20;;;;;;;9.65;80.49;100507.66;4934611;29;20118;-87
2024/03/27 04:37:42;;;;;;;0.20;0.20;;;;;;;9.69;80.16;100523.84;4950569;29;20391;-84
2024/03/27 04:40:11;;;;;;;0.20;0.20;;;;;;;9.57;81.49;100532.16;4950835;29;20070;-87
2024/03/27 04:42:40;;;;;;;0.20;0.20;;;;;;;9.55;81.32;100544.31;4966084;28;20035;-86
2024/03/27 04:45:07;;;;;;;0.10;0.10;;;;;;;9.46;81.58;100530.91;4950347;29;20114;-87
2024/03/27 04:47:33;;;;;;;0.20;0.20;;;;;;;9.45;81.69;100538.72;4966855;28;20028;-88
2024/03/27 04:49:58;;;;;;;0.20;0.20;;;;;;;9.40;81.80;100514.84;4933294;29;20101;-87
2024/03/27 04:52:24;;;;;;;0.20;0.20;;;;;;;9.46;82.35;100515.41;4950586;29;20039;-88
2024/03/27 04:54:49;;;;;;;0.20;0.20;;;;;;;9.41;82.14;100522.53;4950537;29;20027;-86
2024/03/27 04:57:16;;;;;;;0.10;0.10;;;;;;;9.48;82.31;100526.50;4950627;29;20038;-86
2024/03/27 04:59:42;;;;;;;0.10;0.10;;;;;;;9.54;82.71;100542.59;4950195;29;20044;-88
2024/03/27 05:02:07;;;;;;;0.20;0.20;;;;;;;9.53;82.94;100531.44;4966388;28;20082;-87
2024/03/27 05:04:33;;;;;;;0.20;0.20;;;;;;;9.55;82.42;100527.06;4934298;29;20039;-87
2024/03/27 05:06:58;;;;;;;0.20;0.20;;;;;;;9.46;81.95;100514.59;4950313;29;20027;-87
2024/03/27 05:09:24;;;;;;;0.20;0.20;;;;;;;9.52;81.53;100526.34;4951546;28;20039;-87
2024/03/27 05:11:51;;;;;;;0.20;0.20;;;;;;;9.51;82.45;100517.78;4950412;29;20028;-90
2024/03/27 05:14:17;;;;;;;0.20;0.20;;;;;;;9.69;81.99;100545.34;4949589;28;20027;-87
2024/03/27 05:16:43;;;;;;;0.20;0.20;;;;;;;9.72;80.56;100558.09;4931767;29;20031;-86
2024/03/27 05:19:09;;;;;;;0.20;0.20;;;;;;;9.50;80.69;100516.09;4949226;29;20027;-88
2024/03/27 05:21:35;;;;;;;0.20;0.20;;;;;;;9.53;81.07;100525.44;4946721;29;20467;-89
2024/03/27 05:24:01;;;;;;;0.20;0.20;;;;;;;9.73;81.50;100558.94;4953218;29;20039;-88
2024/03/27 05:26:28;;;;;;;0.20;0.20;;;;;;;9.78;81.99;100544.06;4953253;29;20034;-89
2024/03/27 05:28:54;;;;;;;0.10;0.10;;;;;;;9.52;81.83;100523.78;4970383;28;20106;-87
2024/03/27 05:31:20;;;;;;;0.20;0.20;;;;;;;9.89;81.49;100559.06;4955692;28;20543;-92
2024/03/27 05:33:46;;;;;;;0.20;0.20;;;;;;;9.81;80.74;100546.50;4920850;29;20027;-84
2024/03/27 05:36:12;;;;;;;0.20;0.20;;;;;;;9.92;80.60;100549.41;4937246;29;20095;-91
2024/03/27 05:38:38;;;;;;;0.20;0.20;;;;;;;9.83;80.33;100544.69;4934042;29;20056;-89
2024/03/27 05:41:04;;;;;;;0.20;0.20;;;;;;;9.89;81.04;100544.41;4951129;29;20099;-91
2024/03/27 05:43:29;;;;;;;0.20;0.20;;;;;;;9.67;80.85;100503.25;4934331;29;20474;-84
2024/03/27 05:45:55;;;;;;;0.20;0.20;;;;;;;9.88;80.98;100536.72;4935989;29;20062;-92
2024/03/27 05:48:21;;;;;;;0.20;0.20;;;;;;;9.96;80.90;100545.78;4936335;29;20032;-91
2024/03/27 05:50:46;;;;;;;0.20;0.20;;;;;;;9.97;79.83;100542.28;4935189;29;20078;-88
2024/03/27 05:53:12;;;;;;;0.20;0.20;;;;;;;9.92;80.31;100531.31;4933816;29;20192;-85
2024/03/27 05:55:38;;;;;;;0.20;0.20;;;;;;;9.97;80.98;100541.47;4933958;29;20059;-88
2024/03/27 05:58:04;;;;;;;0.20;0.20;;;;;;;9.93;81.72;100535.63;4968101;28;20070;-88
2024/03/27 06:00:29;;;;;;;0.20;0.20;;;;;;;10.09;82.20;100545.19;4954017;28;20486;-87
2024/03/27 06:02:55;;;;;;;0.10;0.10;;;;;;;10.13;80.82;100549.28;4940465;29;20027;-90
2024/03/27 06:05:20;;;;;;;0.20;0.20;;;;;;;10.02;81.04;100535.16;4950727;29;20043;-84
2024/03/27 06:07:46;;;;;;;0.20;0.20;;;;;;;10.08;81.90;100552.13;4968165;28;20057;-89
2024/03/27 06:10:12;;;;;;;0.20;0.20;;;;;;;10.19;81.06;100556.78;4938730;28;20039;-91
2024/03/27 06:12:38;;;;;;;0.20;0.20;;;;;;;10.27;80.61;100560.69;4921767;29;20030;-89
2024/03/27 06:15:04;;;;;;;0.20;0.20;;;;;;;10.28;80.86;100561.53;4950940;29;20460;-87
2024/03/27 06:17:29;;;;;;;0.20;0.20;;;;;;;10.35;80.46;100568.09;4968137;28;20042;-94
2024/03/27 06:19:56;;;;;;;0.20;0.20;;;;;;;10.36;81.02;100569.75;4953235;29;20074;-89
2024/03/27 06:22:21;;;;;;;0.20;0.20;;;;;;;10.23;80.86;100538.50;4935725;29;20537;-85
2024/03/27 06:24:47;;;;;;;0.20;0.20;;;;;;;10.37;79.94;100555.91;4950473;29;20027;-82
2024/03/27 06:27:12;;;;;;;0.20;0.20;;;;;;;10.32;80.75;100555.28;4962353;28;20065;-84
2024/03/27 06:29:38;;;;;;;0.20;0.20;;;;;;;10.44;80.74;100557.28;4953349;28;20027;-86
2024/03/27 06:32:03;;;;;;;0.20;0.20;;;;;;;10.38;80.27;100557.59;4952383;29;20058;-92
2024/03/27 06:34:29;;;;;;;0.20;0.20;;;;;;;10.24;79.17;100539.34;4936171;29;20409;-87
2024/03/27 06:36:55;;;;;;;0.20;0.20;;;;;;;10.24;79.79;100557.44;4952592;29;20035;-86
2024/03/27 06:39:21;;;;;;;0.10;0.10;;;;;;;10.23;80.91;100546.25;4964731;28;20051;-90
2024/03/27 06:41:47;;;;;;;0.20;0.20;;;;;;;10.29;81.77;100547.69;4952151;29;20082;-91
2024/03/27 06:44:15;;;;;;;0.20;0.20;;;;;;;10.31;80.96;100540.69;4953072;29;20031;-90
2024/03/27 06:46:40;;;;;;;0.20;0.20;;;;;;;10.36;81.21;100553.41;4936728;29;20034;-92
2024/03/27 06:49:18;;;;;;;0.10;0.10;;;;;;;10.29;80.11;100545.09;4934561;29;20038;-89
2024/03/27 06:51:50;;;;;;;0.20;0.20;;;;;;;10.19;80.53;100542.09;4951592;29;20035;-81
2024/03/27 06:54:15;;;;;;;0.20;0.20;;;;;;;10.10;81.15;100539.94;4967991;28;20037;-84
2024/03/27 06:56:41;;;;;;;0.20;0.20;;;;;;;10.24;81.94;100554.84;4951144;29;20536;-86
2024/03/27 06:59:07;;;;;;;0.20;0.20;;;;;;;10.33;81.00;100559.56;4951842;29;20042;-84
2024/03/27 07:01:32;;;;;;;0.20;0.20;;;;;;;10.25;80.79;100533.25;4967969;28;20524;-85
2024/03/27 07:03:58;;;;;;;0.20;0.20;;;;;;;10.45;80.34;100563.31;4950865;29;20040;-85
2024/03/27 07:06:23;;;;;;;0.20;0.20;;;;;;;10.48;81.29;100560.56;4952427;28;20054;-86
2024/03/27 07:08:49;;;;;;;0.20;0.20;;;;;;;10.42;82.65;100538.44;4934190;29;20153;-86
2024/03/27 07:11:14;;;;;;;0.10;0.10;;;;;;;10.56;81.32;100564.44;4946116;29;20592;-91
2024/03/27 07:13:40;;;;;;;0.20;0.20;;;;;;;10.50;82.14;100556.97;4954406;29;20031;-88
2024/03/27 07:16:05;;;;;;;0.20;0.20;;;;;;;10.55;82.21;100565.34;4951232;28;20039;-90
2024/03/27 07:18:31;;;;;;;0.20;0.20;;;;;;;10.57;81.36;100560.94;4951119;29;20098;-91
2024/03/27 07:20:57;;;;;;;0.20;0.20;;;;;;;10.51;82.31;100562.97;4950042;29;20034;-85
2024/03/27 07:23:22;;;;;;;0.20;0.20;;;;;;;10.53;82.63;100563.75;4932277;29;20035;-86
2024/03/27 07:25:48;;;;;;;0.20;0.20;;;;;;;10.50;83.18;100564.72;4962502;28;20031;-87
2024/03/27 07:28:14;;;;;;;0.20;0.20;;;;;;;10.49;83.15;100565.66;4950855;29;20035;-91
2024/03/27 07:30:39;;;;;;;0.20;0.20;;;;;;;10.53;81.62;100556.00;4937781;29;20039;-84
2024/03/27 07:33:05;;;;;;;0.20;0.20;;;;;;;10.35;81.73;100521.53;4952911;28;20544;-89
2024/03/27 07:35:31;;;;;;;0.20;0.20;;;;;;;10.42;82.49;100538.44;4950731;29;20042;-85
2024/03/27 07:37:58;;;;;;;0.20;0.20;;;;;;;10.49;84.01;100542.38;4948244;28;20182;-87
2024/03/27 07:40:24;;;;;;;0.20;0.20;;;;;;;10.61;83.39;100565.03;4946362;29;20032;-87
2024/03/27 07:42:49;;;;;;;0.20;0.20;;;;;;;10.65;82.45;100559.72;4948258;29;20046;-87
2024/03/27 07:45:15;;;;;;;0.20;0.20;;;;;;;10.62;83.15;100550.38;4941402;29;20035;-87
2024/03/27 07:47:40;;;;;;;0.20;0.20;;;;;;;10.74;82.62;100551.50;4960408;28;20130;-84
2024/03/27 07:50:08;;;;;;;0.17;0.17;;;;;;;10.77;81.98;100552.16;4949796;29;20556;-86
2024/03/27 07:52:33;;;;;;;0.20;0.20;;;;;;;10.77;83.27;100553.91;4951755;28;20027;-89
2024/03/27 07:54:59;;;;;;;0.20;0.20;;;;;;;10.79;81.52;100560.69;4950570;29;20065;-87
2024/03/27 07:57:25;;;;;;;0.20;0.20;;;;;;;10.90;81.18;100565.31;4954428;29;20402;-93
2024/03/27 07:59:50;;;;;;;0.20;0.20;;;;;;;10.88;82.03;100559.38;4933035;29;20046;-92
2024/03/27 08:02:16;;;;;;;0.20;0.20;;;;;;;10.84;81.38;100560.47;4951808;29;20038;-85
2024/03/27 08:04:41;;;;;;;0.20;0.20;;;;;;;10.93;81.18;100578.13;4964161;28;20043;-86
2024/03/27 08:07:07;;;;;;;0.20;0.20;;;;;;;10.93;82.09;100564.34;4966208;28;20042;-92
2024/03/27 08:09:32;;;;;;;0.20;0.20;;;;;;;10.85;82.26;100554.38;4968896;28;20039;-83
2024/03/27 08:11:58;;;;;;;0.20;0.20;;;;;;;11.00;82.39;100560.50;4949904;29;20027;-83
2024/03/27 08:14:23;;;;;;;0.20;0.20;;;;;;;11.02;81.92;100556.94;4949446;29;20035;-90
2024/03/27 08:16:49;;;;;;;0.20;0.20;;;;;;;11.01;82.12;100565.63;4950783;29;20035;-83
2024/03/27 08:19:15;;;;;;;0.20;0.20;;;;;;;10.81;82.09;100521.78;4934739;29;20062;-85
2024/03/27 08:21:40;;;;;;;0.20;0.20;;;;;;;10.99;82.18;100551.91;4951577;28;20023;-85
2024/03/27 08:24:06;;;;;;;0.20;0.20;;;;;;;11.13;83.02;100558.97;4967434;28;20110;-93
2024/03/27 08:26:32;;;;;;;0.20;0.20;;;;;;;10.97;82.67;100540.78;4953936;28;20027;-82
2024/03/27 08:28:58;;;;;;;0.20;0.20;;;;;;;11.10;82.01;100549.59;4918405;29;20104;-82
2024/03/27 08:31:23;;;;;;;0.20;0.20;;;;;;;11.17;81.83;100540.59;4964915;28;20457;-82
2024/03/27 08:33:49;;;;;;;0.20;0.20;;;;;;;11.18;79.94;100556.97;4935397;29;20039;-83
2024/03/27 08:36:14;;;;;;;0.20;0.20;;;;;;;11.13;80.45;100554.63;4965801;28;20035;-81
2024/03/27 08:38:40;;;;;;;0.20;0.20;;;;;;;11.11;80.83;100551.28;4949565;28;20059;-81
2024/03/27 08:41:05;;;;;;;0.20;0.20;;;;;;;11.18;81.46;100544.00;4966094;28;20031;-86
2024/03/27 08:43:31;;;;;;;0.20;0.20;;;;;;;11.18;81.19;100529.31;4953886;28;20103;-85
2024/03/27 08:45:56;;;;;;;0.20;0.20;;;;;;;11.25;80.70;100545.38;4952077;28;20038;-82
2024/03/27 08:48:22;;;;;;;0.20;0.20;;;;;;;11.32;81.17;100540.72;4945650;28;20042;-85
2024/03/27 08:50:48;;;;;;;0.20;0.20;;;;;;;11.38;81.43;100537.78;4951738;29;20110;-84
2024/03/27 08:53:14;;;;;;;0.20;0.20;;;;;;;11.30;80.80;100532.16;4936319;29;20035;-85
2024/03/27 08:55:43;;;;;;;0.20;0.20;;;;;;;11.40;80.73;100533.34;4953608;29;20023;-89
2024/03/27 08:58:08;;;;;;;0.20;0.20;;;;;;;11.55;80.67;100536.88;4922794;29;20031;-87
2024/03/27 09:00:34;;;;;;;0.20;0.20;;;;;;;11.57;80.47;100520.31;4939256;29;20038;-82
2024/03/27 09:03:01;;;;;;;0.20;0.20;;;;;;;11.57;78.89;100529.84;4954474;28;20035;-84
2024/03/27 09:05:27;;;;;;;0.20;0.20;;;;;;;11.66;78.57;100522.41;4967790;28;20026;-82
2024/03/27 09:07:52;;;;;;;0.20;0.20;;;;;;;11.66;78.98;100524.16;4953597;28;20027;-84
2024/03/27 09:10:18;;;;;;;0.20;0.20;;;;;;;11.69;78.96;100526.56;4953996;28;20024;-88
2024/03/27 09:12:43;;;;;;;0.20;0.20;;;;;;;11.70;79.10;100525.66;4952420;29;20046;-87
2024/03/27 09:15:10;;;;;;;0.20;0.20;;;;;;;11.65;79.79;100518.16;4953560;28;20035;-86
2024/03/27 09:17:36;;;;;;;0.20;0.20;;;;;;;11.67;79.14;100513.72;4953754;28;20059;-83
2024/03/27 09:20:03;;;;;;;0.20;0.20;;;;;;;11.87;78.32;100527.34;4952487;29;20082;-84
2024/03/27 09:22:33;;;;;;;0.20;0.20;;;;;;;11.93;78.90;100534.81;4952237;28;20069;-82
2024/03/27 09:24:59;;;;;;;0.20;0.20;;;;;;;12.01;79.35;100533.44;4950722;29;20027;-87
2024/03/27 09:27:25;;;;;;;0.20;0.20;;;;;;;12.03;79.56;100520.41;4953809;28;20078;-84
2024/03/27 09:29:54;;;;;;;0.20;0.20;;;;;;;12.10;79.34;100519.13;4952683;28;20548;-86
2024/03/27 09:32:23;;;;;;;0.20;0.20;;;;;;;12.20;78.48;100535.00;4951962;29;20031;-86
2024/03/27 09:34:48;;;;;;;0.20;0.20;;;;;;;12.26;78.34;100542.41;4937086;29;20548;-84
2024/03/27 09:37:14;;;;;;;0.20;0.20;;;;;;;12.33;77.18;100542.00;4951817;29;20162;-87
2024/03/27 09:39:39;;;;;;;0.20;0.20;;;;;;;12.25;77.12;100528.63;4953062;29;20219;-84
2024/03/27 09:42:05;;;;;;;0.20;0.20;;;;;;;12.27;77.42;100518.97;4972086;28;20161;-91
2024/03/27 09:44:31;;;;;;;0.20;0.20;;;;;;;12.40;77.03;100541.66;4952733;29;20129;-89
2024/03/27 09:47:00;;;;;;;0.20;0.20;;;;;;;12.43;77.33;100525.91;4929729;29;20513;-86
2024/03/27 09:49:28;;;;;;;0.20;0.20;;;;;;;12.45;76.53;100518.84;4956547;28;20043;-85
2024/03/27 09:51:57;;;;;;;0.20;0.20;;;;;;;12.71;76.00;100546.72;4964181;28;20034;-92
2024/03/27 09:54:25;;;;;;;0.20;0.20;;;;;;;12.53;76.14;100527.88;4954304;28;20489;-85
2024/03/27 09:56:51;;;;;;;0.20;0.20;;;;;;;12.70;76.22;100537.25;4933331;29;20391;-85
2024/03/27 09:59:17;;;;;;;0.20;0.20;;;;;;;12.85;75.95;100553.69;4933808;29;20186;-87
2024/03/27 10:01:43;;;;;;;0.20;0.20;;;;;;;12.93;75.28;100549.69;4950903;28;20032;-87
2024/03/27 10:04:08;;;;;;;0.20;0.20;;;;;;;12.89;73.72;100531.81;4949553;29;20043;-88
2024/03/27 10:06:34;;;;;;;0.20;0.20;;;;;;;12.95;75.32;100535.78;4938012;29;20122;-90
2024/03/27 10:09:00;;;;;;;0.20;0.20;;;;;;;12.93;74.88;100523.72;4937635;29;20087;-86
2024/03/27 10:11:25;;;;;;;0.20;0.20;;;;;;;12.93;74.57;100526.31;4950576;28;20035;-91
2024/03/27 10:13:51;;;;;;;0.20;0.20;;;;;;;12.92;74.61;100524.66;4953989;28;20562;-85
2024/03/27 10:16:17;;;;;;;0.20;0.20;;;;;;;13.14;81.96;100519.00;4947425;29;20039;-86
2024/03/27 10:18:43;;;;;;;0.20;0.20;;;;;;;13.30;75.51;100531.91;4964705;28;20074;-94
2024/03/27 10:21:08;;;;;;;0.20;0.20;;;;;;;13.32;75.14;100519.66;4973428;28;20031;-92
2024/03/27 10:23:34;;;;;;;0.20;0.20;;;;;;;13.33;76.38;100517.91;4936877;29;20074;-87
2024/03/27 10:26:03;;;;;;;0.20;0.20;;;;;;;13.37;74.00;100511.56;4951397;29;20031;-89
2024/03/27 10:28:35;;;;;;;0.20;0.20;;;;;;;13.37;73.69;100515.03;4959418;28;20031;-85
2024/03/27 10:31:04;;;;;;;0.20;0.20;;;;;;;13.43;74.00;100514.63;4952414;29;20031;-90
2024/03/27 10:33:30;;;;;;;0.20;0.20;;;;;;;13.50;75.02;100515.09;4953855;28;20535;-87
2024/03/27 10:35:55;;;;;;;0.20;0.20;;;;;;;13.38;75.27;100505.47;4936024;29;20240;-84
2024/03/27 10:38:23;;;;;;;0.20;0.20;;;;;;;13.40;74.84;100509.63;4952435;29;20070;-89
2024/03/27 10:40:52;;;;;;;0.10;0.10;;;;;;;13.38;75.78;100514.09;4932915;29;20023;-86
2024/03/27 10:43:47;;;;;;;0.20;0.20;;;;;;;13.48;75.90;100516.97;4943110;29;20508;-90
2024/03/27 10:46:14;;;;;;;0.20;0.20;;;;;;;13.42;75.18;100499.97;4952912;28;20050;-91
2024/03/27 10:48:39;;;;;;;0.20;0.20;;;;;;;13.54;74.29;100493.16;4938455;28;20467;-88
2024/03/27 10:51:05;;;;;;;0.20;0.20;;;;;;;13.59;74.89;100498.09;4942979;29;20034;-88
2024/03/27 10:53:31;;;;;;;0.20;0.20;;;;;;;13.60;74.13;100510.97;4936040;29;20031;-87
2024/03/27 10:55:57;;;;;;;0.20;0.20;;;;;;;13.66;75.13;100510.56;4920194;29;20406;-87
2024/03/27 10:58:23;;;;;;;0.20;0.20;;;;;;;13.76;74.30;100506.50;4935101;29;20027;-87
2024/03/27 11:00:48;;;;;;;0.20;0.20;;;;;;;13.82;73.16;100497.44;4968298;28;20042;-89
2024/03/27 11:03:14;;;;;;;0.20;0.20;;;;;;;13.74;73.32;100497.94;4944105;29;20046;-87
2024/03/27 11:05:45;;;;;;;0.20;0.20;;;;;;;13.73;73.88;100492.81;4935407;29;20027;-87
2024/03/27 11:08:11;;;;;;;0.20;0.20;;;;;;;13.72;73.97;100488.56;4938512;28;20038;-88
2024/03/27 11:10:36;;;;;;;0.20;0.20;;;;;;;13.68;72.79;100480.13;4958312;28;20110;-87
2024/03/27 11:13:02;;;;;;;0.20;0.20;;;;;;;13.72;72.92;100476.41;4935445;29;20054;-92
2024/03/27 11:15:28;;;;;;;0.20;0.20;;;;;;;13.64;73.30;100475.22;4950849;29;20031;-88
2024/03/27 11:17:54;;;;;;;0.20;0.20;;;;;;;13.68;73.74;100477.53;4937078;29;20042;-92
2024/03/27 11:20:26;;;;;;;0.20;0.20;;;;;;;13.53;73.35;100446.47;4933992;29;20032;-82
2024/03/27 11:22:55;;;;;;;0.20;0.20;;;;;;;13.73;72.65;100465.06;4952492;28;20023;-87
2024/03/27 11:25:24;;;;;;;0.20;0.20;;;;;;;13.74;72.77;100473.69;4951454;29;20027;-86